Time;durP1;ratioP1;P1;durP2;ratioP2;P2;SDS_P1;SDS_P2;PMS_P1;PMS_P2;Temp;Humidity;BMP_temperature;BMP_pressure;BME280_temperature;BME280_humidity;BME280_pressure;Samples;Min_cycle;Max_cycle;Signal;HPM_P1;HPM_P2
2022/07/25 00:01:59;;;;;;;1999.90;999.90;;;;;;;;;;5120727;27;20832;-76
2022/07/25 00:04:28;;;;;;;1999.90;999.90;;;;;;;;;;5121270;27;20380;-77
2022/07/25 00:06:57;;;;;;;1999.90;999.90;;;;;;;;;;5137474;27;20447;-76
2022/07/25 00:09:25;;;;;;;1999.90;999.90;;;;;;;;;;5118510;27;21294;-77
2022/07/25 00:11:53;;;;;;;1999.90;999.90;;;;;;;;;;5121346;27;20738;-76
2022/07/25 00:14:21;;;;;;;1999.90;999.90;;;;;;;;;;5120285;27;20499;-75
2022/07/25 00:16:48;;;;;;;1999.90;999.90;;;;;;;;;;5117152;27;20396;-76
2022/07/25 00:19:16;;;;;;;1999.90;999.90;;;;;;;;;;5118976;27;20352;-76
2022/07/25 00:21:44;;;;;;;1999.90;999.90;;;;;;;;;;5137303;27;20398;-76
2022/07/25 00:24:14;;;;;;;1999.90;999.90;;;;;;;;;;5138454;27;20390;-76
2022/07/25 00:26:41;;;;;;;1999.90;999.90;;;;;;;;;;5139664;27;20403;-75
2022/07/25 00:29:09;;;;;;;1999.90;999.90;;;;;;;;;;5139490;27;20387;-75
2022/07/25 00:31:37;;;;;;;1999.90;999.90;;;;;;;;;;5119190;27;20388;-75
2022/07/25 00:34:05;;;;;;;1999.90;999.90;;;;;;;;;;5125566;27;20426;-76
2022/07/25 00:36:33;;;;;;;1999.90;999.90;;;;;;;;;;5120232;27;20431;-75
2022/07/25 00:39:01;;;;;;;1999.90;999.90;;;;;;;;;;5120866;27;20412;-75
2022/07/25 00:41:30;;;;;;;1999.90;999.90;;;;;;;;;;5122122;27;20411;-77
2022/07/25 00:43:58;;;;;;;1999.90;999.90;;;;;;;;;;5139724;27;20412;-78
2022/07/25 00:46:26;;;;;;;1999.90;999.90;;;;;;;;;;5119712;27;20400;-77
2022/07/25 00:48:54;;;;;;;1999.90;999.90;;;;;;;;;;5123674;27;20391;-77
2022/07/25 00:51:22;;;;;;;1999.90;999.90;;;;;;;;;;5120329;27;20496;-78
2022/07/25 00:53:50;;;;;;;1999.90;999.90;;;;;;;;;;5123526;27;20407;-78
2022/07/25 00:56:18;;;;;;;1999.90;999.90;;;;;;;;;;5121754;27;20466;-78
2022/07/25 00:58:47;;;;;;;1999.90;999.90;;;;;;;;;;5107930;27;20403;-78
2022/07/25 01:01:15;;;;;;;1999.90;999.90;;;;;;;;;;5143830;27;20406;-78
2022/07/25 01:03:43;;;;;;;1999.90;999.90;;;;;;;;;;5126791;27;22414;-80
2022/07/25 01:06:10;;;;;;;1999.90;999.90;;;;;;;;;;5128817;27;20412;-77
2022/07/25 01:08:39;;;;;;;1999.90;999.90;;;;;;;;;;5124112;27;20391;-77
2022/07/25 01:11:07;;;;;;;1999.90;999.90;;;;;;;;;;5136856;27;20508;-77
2022/07/25 01:13:34;;;;;;;1999.90;999.90;;;;;;;;;;5137629;27;20408;-77
2022/07/25 01:16:04;;;;;;;1999.90;999.90;;;;;;;;;;5137461;27;20419;-77
2022/07/25 01:18:33;;;;;;;1999.90;999.90;;;;;;;;;;5137299;27;20918;-77
2022/07/25 01:21:02;;;;;;;1999.90;999.90;;;;;;;;;;5126246;27;20360;-77
2022/07/25 01:23:30;;;;;;;1999.90;999.90;;;;;;;;;;5144441;27;20360;-77
2022/07/25 01:25:58;;;;;;;1999.90;999.90;;;;;;;;;;5142715;27;20412;-76
2022/07/25 01:28:27;;;;;;;1999.90;999.90;;;;;;;;;;5123416;27;20410;-78
2022/07/25 01:30:54;;;;;;;1999.90;999.90;;;;;;;;;;5106745;27;20426;-77
2022/07/25 01:33:22;;;;;;;1999.90;999.90;;;;;;;;;;5122308;27;20841;-76
2022/07/25 01:35:50;;;;;;;1999.90;999.90;;;;;;;;;;5139753;27;20396;-76
2022/07/25 01:38:19;;;;;;;1999.90;999.90;;;;;;;;;;5138942;27;20398;-77
2022/07/25 01:40:47;;;;;;;1999.90;999.90;;;;;;;;;;5132298;27;20421;-78
2022/07/25 01:43:15;;;;;;;1999.90;999.90;;;;;;;;;;5117770;27;20360;-77
2022/07/25 01:45:42;;;;;;;1999.90;999.90;;;;;;;;;;5131746;27;20411;-77
2022/07/25 01:48:10;;;;;;;1999.90;999.90;;;;;;;;;;5142426;27;20995;-77
2022/07/25 01:50:38;;;;;;;1999.90;999.90;;;;;;;;;;5120770;27;20412;-77
2022/07/25 01:53:06;;;;;;;1999.90;999.90;;;;;;;;;;5148114;27;20348;-76
2022/07/25 01:55:36;;;;;;;1999.90;999.90;;;;;;;;;;5152370;27;20380;-77
2022/07/25 01:58:04;;;;;;;1999.90;999.90;;;;;;;;;;5148993;27;20404;-76
2022/07/25 02:00:34;;;;;;;1999.90;999.90;;;;;;;;;;5130295;27;20403;-77
2022/07/25 02:05:48;;;;;;;1999.90;999.90;;;;;;;;;;5129089;27;20387;-77
2022/07/25 02:08:15;;;;;;;1999.90;999.90;;;;;;;;;;5117656;27;20406;-77
2022/07/25 02:10:45;;;;;;;1999.90;999.90;;;;;;;;;;5135059;27;21051;-77
2022/07/25 02:13:12;;;;;;;1999.90;999.90;;;;;;;;;;5135982;27;20898;-77
2022/07/25 02:15:40;;;;;;;1999.90;999.90;;;;;;;;;;5136277;27;20453;-78
2022/07/25 02:18:09;;;;;;;1999.90;999.90;;;;;;;;;;5119997;27;20417;-77
2022/07/25 02:20:36;;;;;;;1999.90;999.90;;;;;;;;;;5112500;27;20400;-76
2022/07/25 02:23:04;;;;;;;1999.90;999.90;;;;;;;;;;5115839;27;20400;-77
2022/07/25 02:25:32;;;;;;;1999.90;999.90;;;;;;;;;;5133314;27;20412;-77
2022/07/25 02:28:01;;;;;;;1999.90;999.90;;;;;;;;;;5100670;27;20468;-77
2022/07/25 02:30:29;;;;;;;1999.90;999.90;;;;;;;;;;5118057;27;20384;-77
2022/07/25 02:32:57;;;;;;;1999.90;999.90;;;;;;;;;;5104364;27;21192;-76
2022/07/25 02:35:25;;;;;;;1999.90;999.90;;;;;;;;;;5123244;27;20375;-78
2022/07/25 02:37:53;;;;;;;1999.90;999.90;;;;;;;;;;5111685;27;20469;-79
2022/07/25 02:40:21;;;;;;;1999.90;999.90;;;;;;;;;;5146568;27;20428;-75
2022/07/25 02:42:49;;;;;;;1999.90;999.90;;;;;;;;;;5144925;27;20462;-76
2022/07/25 02:45:18;;;;;;;1999.90;999.90;;;;;;;;;;5130725;27;20463;-77
2022/07/25 02:47:46;;;;;;;1999.90;999.90;;;;;;;;;;5130412;27;20455;-77
2022/07/25 02:50:13;;;;;;;1999.90;999.90;;;;;;;;;;5142672;27;20447;-77
2022/07/25 02:52:41;;;;;;;1999.90;999.90;;;;;;;;;;5104409;27;20999;-77
2022/07/25 02:55:10;;;;;;;1999.90;999.90;;;;;;;;;;5138599;27;20414;-77
2022/07/25 02:57:38;;;;;;;1999.90;999.90;;;;;;;;;;5119411;27;20380;-77
2022/07/25 03:00:07;;;;;;;1999.90;999.90;;;;;;;;;;5119522;27;20392;-76
2022/07/25 03:02:36;;;;;;;1999.90;999.90;;;;;;;;;;5117053;27;20490;-77
2022/07/25 03:05:05;;;;;;;1999.90;999.90;;;;;;;;;;5137507;27;20499;-77
2022/07/25 03:07:33;;;;;;;1999.90;999.90;;;;;;;;;;5116417;27;21107;-77
2022/07/25 03:10:02;;;;;;;1999.90;999.90;;;;;;;;;;5103776;27;20364;-78
2022/07/25 03:12:37;;;;;;;1999.90;999.90;;;;;;;;;;5140695;27;20406;-77
2022/07/25 03:15:05;;;;;;;1999.90;999.90;;;;;;;;;;5126367;27;20374;-77
2022/07/25 03:17:33;;;;;;;1999.90;999.90;;;;;;;;;;5127927;27;20411;-77
2022/07/25 03:20:02;;;;;;;1999.90;999.90;;;;;;;;;;5113459;27;20379;-77
2022/07/25 03:22:30;;;;;;;1999.90;999.90;;;;;;;;;;5147774;27;20400;-76
2022/07/25 03:24:58;;;;;;;1999.90;999.90;;;;;;;;;;5150856;27;20403;-77
2022/07/25 03:27:25;;;;;;;1999.90;999.90;;;;;;;;;;5117839;27;20409;-77
2022/07/25 03:29:54;;;;;;;1999.90;999.90;;;;;;;;;;5131625;27;20374;-76
2022/07/25 03:32:22;;;;;;;1999.90;999.90;;;;;;;;;;5151788;27;20383;-78
2022/07/25 03:34:49;;;;;;;1999.90;999.90;;;;;;;;;;5153675;27;20422;-77
2022/07/25 03:37:19;;;;;;;1999.90;999.90;;;;;;;;;;5129218;27;20392;-76
2022/07/25 03:39:46;;;;;;;1999.90;999.90;;;;;;;;;;5124896;27;20415;-77
2022/07/25 03:42:14;;;;;;;1999.90;999.90;;;;;;;;;;5120109;27;20394;-76
2022/07/25 03:44:42;;;;;;;1999.90;999.90;;;;;;;;;;5140641;27;20418;-77
2022/07/25 03:47:10;;;;;;;1999.90;999.90;;;;;;;;;;5137340;27;20387;-77
2022/07/25 03:49:47;;;;;;;1999.90;999.90;;;;;;;;;;5133112;27;20392;-78
2022/07/25 03:52:15;;;;;;;1999.90;999.90;;;;;;;;;;5116606;27;21502;-78
2022/07/25 03:54:44;;;;;;;1999.90;999.90;;;;;;;;;;5137126;27;20399;-77
2022/07/25 03:57:11;;;;;;;1999.90;999.90;;;;;;;;;;5117472;27;20388;-76
2022/07/25 03:59:39;;;;;;;1999.90;999.90;;;;;;;;;;5108790;27;20415;-76
2022/07/25 04:02:07;;;;;;;1999.90;999.90;;;;;;;;;;5133735;27;20399;-76
2022/07/25 04:04:35;;;;;;;1999.90;999.90;;;;;;;;;;5119798;27;21336;-76
2022/07/25 04:07:03;;;;;;;1999.90;999.90;;;;;;;;;;5115544;27;20399;-76
2022/07/25 04:09:31;;;;;;;1999.90;999.90;;;;;;;;;;5114497;27;20448;-76
2022/07/25 04:12:01;;;;;;;1999.90;999.90;;;;;;;;;;5113168;27;20377;-76
2022/07/25 04:14:29;;;;;;;1999.90;999.90;;;;;;;;;;5116376;27;20418;-76
2022/07/25 04:16:57;;;;;;;1999.90;999.90;;;;;;;;;;5114225;27;20384;-75
2022/07/25 04:19:25;;;;;;;1999.90;999.90;;;;;;;;;;5098934;27;20395;-77
2022/07/25 04:21:55;;;;;;;1999.90;999.90;;;;;;;;;;5104267;27;20395;-75
2022/07/25 04:24:23;;;;;;;1999.90;999.90;;;;;;;;;;5117124;27;20410;-75
2022/07/25 04:26:51;;;;;;;1999.90;999.90;;;;;;;;;;5133302;27;20390;-74
2022/07/25 04:29:20;;;;;;;1999.90;999.90;;;;;;;;;;5132296;27;20403;-76
2022/07/25 04:31:48;;;;;;;1999.90;999.90;;;;;;;;;;5114707;27;20403;-75
2022/07/25 04:34:16;;;;;;;1999.90;999.90;;;;;;;;;;5134964;27;20400;-75
2022/07/25 04:36:43;;;;;;;1999.90;999.90;;;;;;;;;;5118586;27;20476;-75
2022/07/25 04:39:12;;;;;;;1999.90;999.90;;;;;;;;;;5136789;27;20403;-76
2022/07/25 04:41:40;;;;;;;1999.90;999.90;;;;;;;;;;5116947;27;20666;-76
2022/07/25 04:44:07;;;;;;;1999.90;999.90;;;;;;;;;;5135461;27;20405;-75
2022/07/25 04:46:37;;;;;;;1999.90;999.90;;;;;;;;;;5117520;27;20874;-76
2022/07/25 04:49:05;;;;;;;1999.90;999.90;;;;;;;;;;5134808;27;20422;-75
2022/07/25 04:51:33;;;;;;;1999.90;999.90;;;;;;;;;;5134689;27;20404;-76
2022/07/25 04:54:00;;;;;;;1999.90;999.90;;;;;;;;;;5101570;27;20430;-75
2022/07/25 04:56:28;;;;;;;1999.90;999.90;;;;;;;;;;5119158;27;20875;-75
2022/07/25 04:58:56;;;;;;;1999.90;999.90;;;;;;;;;;5117887;27;20407;-76
2022/07/25 05:01:29;;;;;;;1999.90;999.90;;;;;;;;;;5126708;27;20384;-73
2022/07/25 05:03:59;;;;;;;1999.90;999.90;;;;;;;;;;5116742;27;20396;-71
2022/07/25 05:06:26;;;;;;;1999.90;999.90;;;;;;;;;;5114822;27;20388;-72
2022/07/25 05:08:54;;;;;;;1999.90;999.90;;;;;;;;;;5120753;27;20410;-74
2022/07/25 05:11:22;;;;;;;1999.90;999.90;;;;;;;;;;5116891;27;20399;-75
2022/07/25 05:13:50;;;;;;;1999.90;999.90;;;;;;;;;;5101057;27;20558;-74
2022/07/25 05:16:18;;;;;;;1999.90;999.90;;;;;;;;;;5116501;27;20384;-74
2022/07/25 05:18:46;;;;;;;1999.90;999.90;;;;;;;;;;5120816;27;20436;-74
2022/07/25 05:21:15;;;;;;;1999.90;999.90;;;;;;;;;;5132418;27;20551;-75
2022/07/25 05:23:43;;;;;;;1999.90;999.90;;;;;;;;;;5099749;27;20400;-74
2022/07/25 05:26:11;;;;;;;1999.90;999.90;;;;;;;;;;5134720;27;20388;-74
2022/07/25 05:28:39;;;;;;;1999.90;999.90;;;;;;;;;;5116958;27;20456;-75
2022/07/25 05:31:06;;;;;;;1999.90;999.90;;;;;;;;;;5133645;27;20395;-74
2022/07/25 05:33:34;;;;;;;1999.90;999.90;;;;;;;;;;5099839;27;20830;-74
2022/07/25 05:36:03;;;;;;;1999.90;999.90;;;;;;;;;;5115710;27;20399;-74
2022/07/25 05:38:33;;;;;;;1999.90;999.90;;;;;;;;;;5135418;27;20435;-74
2022/07/25 05:41:01;;;;;;;1999.90;999.90;;;;;;;;;;5137800;27;20384;-75
2022/07/25 05:43:28;;;;;;;1999.90;999.90;;;;;;;;;;5134130;27;20412;-74
2022/07/25 05:46:00;;;;;;;1999.90;999.90;;;;;;;;;;5116427;27;20394;-74
2022/07/25 05:48:28;;;;;;;1999.90;999.90;;;;;;;;;;5116158;27;20412;-74
2022/07/25 05:50:56;;;;;;;1999.90;999.90;;;;;;;;;;5118972;27;20415;-75
2022/07/25 05:53:24;;;;;;;1999.90;999.90;;;;;;;;;;5134709;27;21279;-74
2022/07/25 05:55:53;;;;;;;1999.90;999.90;;;;;;;;;;5117490;27;20392;-75
2022/07/25 05:58:21;;;;;;;1999.90;999.90;;;;;;;;;;5142398;27;20545;-74
2022/07/25 06:00:56;;;;;;;1999.90;999.90;;;;;;;;;;5143587;27;20394;-74
2022/07/25 06:03:23;;;;;;;1999.90;999.90;;;;;;;;;;5125550;27;20400;-74
2022/07/25 06:05:51;;;;;;;1999.90;999.90;;;;;;;;;;5122344;27;20396;-74
2022/07/25 06:08:19;;;;;;;1999.90;999.90;;;;;;;;;;5141631;27;20885;-75
2022/07/25 06:10:48;;;;;;;1999.90;999.90;;;;;;;;;;5118808;27;20861;-74
2022/07/25 06:13:18;;;;;;;1999.90;999.90;;;;;;;;;;5101614;27;20885;-76
2022/07/25 06:15:47;;;;;;;1999.90;999.90;;;;;;;;;;5103001;27;20400;-76
2022/07/25 06:18:15;;;;;;;1999.90;999.90;;;;;;;;;;5138646;27;20405;-76
2022/07/25 06:20:43;;;;;;;1999.90;999.90;;;;;;;;;;5118249;27;21046;-76
2022/07/25 06:23:10;;;;;;;1999.90;999.90;;;;;;;;;;5121425;27;20414;-75
2022/07/25 06:25:38;;;;;;;1999.90;999.90;;;;;;;;;;5117800;27;21408;-77
2022/07/25 06:28:06;;;;;;;1999.90;999.90;;;;;;;;;;5114633;27;20387;-76
2022/07/25 06:30:38;;;;;;;1999.90;999.90;;;;;;;;;;5136033;27;20842;-75
2022/07/25 06:33:06;;;;;;;1999.90;999.90;;;;;;;;;;5136000;27;21054;-74
2022/07/25 06:35:34;;;;;;;1999.90;999.90;;;;;;;;;;5134245;27;20408;-77
2022/07/25 06:38:02;;;;;;;1999.90;999.90;;;;;;;;;;5096234;27;20407;-76
2022/07/25 06:40:30;;;;;;;1999.90;999.90;;;;;;;;;;5117533;27;20388;-76
2022/07/25 06:42:57;;;;;;;1999.90;999.90;;;;;;;;;;5136715;27;20407;-76
2022/07/25 06:45:25;;;;;;;1999.90;999.90;;;;;;;;;;5099679;27;20511;-76
2022/07/25 06:47:54;;;;;;;1999.90;999.90;;;;;;;;;;5133971;27;20875;-76
2022/07/25 06:50:22;;;;;;;1999.90;999.90;;;;;;;;;;5110942;27;20466;-76
2022/07/25 06:52:50;;;;;;;1999.90;999.90;;;;;;;;;;5120218;27;20504;-75
2022/07/25 06:55:18;;;;;;;1999.90;999.90;;;;;;;;;;5139024;27;20407;-77
2022/07/25 06:57:46;;;;;;;1999.90;999.90;;;;;;;;;;5134141;27;20415;-77
2022/07/25 07:00:14;;;;;;;1999.90;999.90;;;;;;;;;;5131848;27;20402;-75
2022/07/25 07:02:49;;;;;;;1999.90;999.90;;;;;;;;;;5115700;27;20403;-76
2022/07/25 07:05:18;;;;;;;1999.90;999.90;;;;;;;;;;5137839;27;20475;-76
2022/07/25 07:07:46;;;;;;;1999.90;999.90;;;;;;;;;;5118496;27;20404;-77
2022/07/25 07:10:15;;;;;;;1999.90;999.90;;;;;;;;;;5102343;27;20412;-77
2022/07/25 07:12:43;;;;;;;1999.90;999.90;;;;;;;;;;5132702;27;20399;-76
2022/07/25 07:15:11;;;;;;;1999.90;999.90;;;;;;;;;;5118366;27;20475;-76
2022/07/25 07:17:39;;;;;;;1999.90;999.90;;;;;;;;;;5114469;27;20399;-77
2022/07/25 07:20:07;;;;;;;1999.90;999.90;;;;;;;;;;5097598;27;20384;-77
2022/07/25 07:22:44;;;;;;;1999.90;999.90;;;;;;;;;;5115511;27;21266;-77
2022/07/25 07:25:12;;;;;;;1999.90;999.90;;;;;;;;;;5100316;27;20383;-76
2022/07/25 07:27:40;;;;;;;1999.90;999.90;;;;;;;;;;5131296;27;20460;-76
2022/07/25 07:30:10;;;;;;;1999.90;999.90;;;;;;;;;;5130663;27;20471;-75
2022/07/25 07:32:38;;;;;;;1999.90;999.90;;;;;;;;;;5132546;27;20425;-76
2022/07/25 07:35:06;;;;;;;1999.90;999.90;;;;;;;;;;5097341;27;20481;-76
2022/07/25 07:37:34;;;;;;;1999.90;999.90;;;;;;;;;;5113898;27;20774;-77
2022/07/25 07:40:11;;;;;;;1999.90;999.90;;;;;;;;;;5135226;27;20384;-76
2022/07/25 07:42:46;;;;;;;1999.90;999.90;;;;;;;;;;5131367;27;20415;-76
2022/07/25 07:45:15;;;;;;;1999.90;999.90;;;;;;;;;;5119570;27;20389;-76
2022/07/25 07:47:45;;;;;;;1999.90;999.90;;;;;;;;;;5117652;27;20487;-75
2022/07/25 07:50:13;;;;;;;1999.90;999.90;;;;;;;;;;5121841;27;21434;-76
2022/07/25 07:52:41;;;;;;;1999.90;999.90;;;;;;;;;;5120215;27;20396;-78
2022/07/25 07:57:58;;;;;;;1999.90;999.90;;;;;;;;;;5139533;27;20412;-77
2022/07/25 08:00:29;;;;;;;1999.90;999.90;;;;;;;;;;5124084;27;20380;-77
2022/07/25 08:02:57;;;;;;;1999.90;999.90;;;;;;;;;;5138938;27;20404;-77
2022/07/25 08:05:26;;;;;;;1999.90;999.90;;;;;;;;;;5115938;27;21178;-78
2022/07/25 08:07:54;;;;;;;1999.90;999.90;;;;;;;;;;5126330;27;20447;-74
2022/07/25 08:10:23;;;;;;;1999.90;999.90;;;;;;;;;;5129110;27;20482;-75
2022/07/25 08:12:50;;;;;;;1999.90;999.90;;;;;;;;;;5126090;27;20497;-75
2022/07/25 08:15:20;;;;;;;1999.90;999.90;;;;;;;;;;5124308;27;20392;-76
2022/07/25 08:17:49;;;;;;;1999.90;999.90;;;;;;;;;;5112264;27;20387;-75
2022/07/25 08:20:18;;;;;;;1999.90;999.90;;;;;;;;;;5113759;27;20392;-77
2022/07/25 08:23:05;;;;;;;1999.90;999.90;;;;;;;;;;5132973;27;20403;-76
2022/07/25 08:25:33;;;;;;;1999.90;999.90;;;;;;;;;;5111116;27;20433;-75
2022/07/25 08:28:01;;;;;;;1999.90;999.90;;;;;;;;;;5130616;27;20392;-75
2022/07/25 08:30:30;;;;;;;1999.90;999.90;;;;;;;;;;5111745;27;20413;-77
2022/07/25 08:32:59;;;;;;;1999.90;999.90;;;;;;;;;;5127519;27;20479;-77
2022/07/25 08:35:28;;;;;;;1999.90;999.90;;;;;;;;;;5129583;27;20433;-78
2022/07/25 08:37:56;;;;;;;1999.90;999.90;;;;;;;;;;5116090;27;20412;-76
2022/07/25 08:40:24;;;;;;;1999.90;999.90;;;;;;;;;;5118859;27;20352;-76
2022/07/25 08:42:53;;;;;;;1999.90;999.90;;;;;;;;;;5140880;27;20854;-77
2022/07/25 08:45:21;;;;;;;1999.90;999.90;;;;;;;;;;5120258;27;20455;-77
2022/07/25 08:47:51;;;;;;;1999.90;999.90;;;;;;;;;;5119022;27;21363;-77
2022/07/25 08:50:20;;;;;;;1999.90;999.90;;;;;;;;;;5120782;27;20391;-77
2022/07/25 08:52:48;;;;;;;1999.90;999.90;;;;;;;;;;5120848;27;20499;-77
2022/07/25 08:55:18;;;;;;;1999.90;999.90;;;;;;;;;;5139967;27;20400;-77
2022/07/25 08:57:47;;;;;;;1999.90;999.90;;;;;;;;;;5132109;27;20579;-77
2022/07/25 09:00:17;;;;;;;1999.90;999.90;;;;;;;;;;5137516;27;20408;-76
2022/07/25 09:02:52;;;;;;;1999.90;999.90;;;;;;;;;;5121500;27;20412;-75
2022/07/25 09:05:20;;;;;;;1999.90;999.90;;;;;;;;;;5101850;27;21194;-76
2022/07/25 09:07:48;;;;;;;1999.90;999.90;;;;;;;;;;5137927;27;20399;-76
2022/07/25 09:10:17;;;;;;;1999.90;999.90;;;;;;;;;;5120069;27;20447;-76
2022/07/25 09:12:51;;;;;;;1999.90;999.90;;;;;;;;;;5135151;27;20396;-76
2022/07/25 09:15:23;;;;;;;1999.90;999.90;;;;;;;;;;5118779;27;20398;-77
2022/07/25 09:17:54;;;;;;;1999.90;999.90;;;;;;;;;;5142076;27;20407;-77
2022/07/25 09:20:22;;;;;;;1999.90;999.90;;;;;;;;;;5140088;27;21655;-77
2022/07/25 09:22:50;;;;;;;1999.90;999.90;;;;;;;;;;5144690;27;20408;-76
2022/07/25 09:25:22;;;;;;;1999.90;999.90;;;;;;;;;;5145686;27;20388;-77
2022/07/25 09:27:50;;;;;;;1999.90;999.90;;;;;;;;;;5128558;27;20387;-76
2022/07/25 09:30:18;;;;;;;1999.90;999.90;;;;;;;;;;5144862;27;20411;-77
2022/07/25 09:32:46;;;;;;;1999.90;999.90;;;;;;;;;;5143200;27;20446;-76
2022/07/25 09:35:16;;;;;;;1999.90;999.90;;;;;;;;;;5139268;27;20427;-77
2022/07/25 09:37:43;;;;;;;1999.90;999.90;;;;;;;;;;5117138;27;20411;-77
2022/07/25 09:40:13;;;;;;;1999.90;999.90;;;;;;;;;;5134878;27;20396;-76
2022/07/25 09:42:41;;;;;;;1999.90;999.90;;;;;;;;;;5113464;27;20428;-76
2022/07/25 09:45:11;;;;;;;1999.90;999.90;;;;;;;;;;5134134;27;20507;-76
2022/07/25 09:47:50;;;;;;;1999.90;999.90;;;;;;;;;;5134548;27;20483;-77
2022/07/25 09:50:20;;;;;;;1999.90;999.90;;;;;;;;;;5134943;27;20426;-76
2022/07/25 09:52:49;;;;;;;1999.90;999.90;;;;;;;;;;5118078;27;20379;-77
2022/07/25 09:55:18;;;;;;;1999.90;999.90;;;;;;;;;;5121454;27;20356;-76
2022/07/25 09:57:46;;;;;;;1999.90;999.90;;;;;;;;;;5121534;27;20384;-76
2022/07/25 10:00:14;;;;;;;1999.90;999.90;;;;;;;;;;5143706;27;20402;-76
2022/07/25 10:02:52;;;;;;;1999.90;999.90;;;;;;;;;;5143945;27;20375;-77
2022/07/25 10:05:27;;;;;;;1999.90;999.90;;;;;;;;;;5126085;27;20388;-76
2022/07/25 10:07:55;;;;;;;1999.90;999.90;;;;;;;;;;5140979;27;20368;-76
2022/07/25 10:10:28;;;;;;;1999.90;999.90;;;;;;;;;;5142980;27;20528;-76
2022/07/25 10:13:04;;;;;;;1999.90;999.90;;;;;;;;;;5100962;27;21497;-77
2022/07/25 10:15:55;;;;;;;1999.90;999.90;;;;;;;;;;5114076;27;20410;-77
2022/07/25 10:18:24;;;;;;;1999.90;999.90;;;;;;;;;;5117185;27;20967;-77
2022/07/25 10:20:55;;;;;;;1999.90;999.90;;;;;;;;;;5136452;27;20400;-77
2022/07/25 10:23:24;;;;;;;1999.90;999.90;;;;;;;;;;5136740;27;20495;-78
2022/07/25 10:26:07;;;;;;;1999.90;999.90;;;;;;;;;;5135673;27;20520;-76
2022/07/25 10:28:40;;;;;;;1999.90;999.90;;;;;;;;;;5115415;27;21049;-77
2022/07/25 10:31:15;;;;;;;1999.90;999.90;;;;;;;;;;5118339;27;20392;-77
2022/07/25 10:33:47;;;;;;;1999.90;999.90;;;;;;;;;;5098651;27;20412;-76
2022/07/25 10:36:16;;;;;;;1999.90;999.90;;;;;;;;;;5118449;27;20876;-75
2022/07/25 10:38:45;;;;;;;1999.90;999.90;;;;;;;;;;5138836;27;20419;-76
2022/07/25 10:41:14;;;;;;;1999.90;999.90;;;;;;;;;;5116447;27;20432;-76
2022/07/25 10:43:43;;;;;;;1999.90;999.90;;;;;;;;;;5100727;27;20977;-75
2022/07/25 10:46:18;;;;;;;1999.90;999.90;;;;;;;;;;5134789;27;20813;-75
2022/07/25 10:48:56;;;;;;;1999.90;999.90;;;;;;;;;;5110074;27;20401;-76
2022/07/25 10:51:28;;;;;;;1999.90;999.90;;;;;;;;;;5139812;27;20649;-76
2022/07/25 10:53:56;;;;;;;1999.90;999.90;;;;;;;;;;5134348;27;20410;-76
2022/07/25 10:56:24;;;;;;;1999.90;999.90;;;;;;;;;;5118621;27;20887;-76
2022/07/25 10:58:53;;;;;;;1999.90;999.90;;;;;;;;;;5138904;27;20491;-76
2022/07/25 11:01:22;;;;;;;1999.90;999.90;;;;;;;;;;5101199;27;20499;-76
2022/07/25 11:03:51;;;;;;;1999.90;999.90;;;;;;;;;;5137065;27;20483;-76
2022/07/25 11:06:30;;;;;;;1999.90;999.90;;;;;;;;;;5118921;27;20380;-76
2022/07/25 11:08:59;;;;;;;1999.90;999.90;;;;;;;;;;5120803;27;20479;-76
2022/07/25 11:11:35;;;;;;;1999.90;999.90;;;;;;;;;;5113741;27;20516;-76
2022/07/25 11:14:03;;;;;;;1999.90;999.90;;;;;;;;;;5113990;27;20408;-76
2022/07/25 11:16:30;;;;;;;1999.90;999.90;;;;;;;;;;5099659;27;20518;-76
2022/07/25 11:18:58;;;;;;;1999.90;999.90;;;;;;;;;;5136407;27;20403;-76
2022/07/25 11:21:26;;;;;;;1999.90;999.90;;;;;;;;;;5117743;27;20772;-75
2022/07/25 11:23:55;;;;;;;1999.90;999.90;;;;;;;;;;5103397;27;20408;-74
2022/07/25 11:26:23;;;;;;;1999.90;999.90;;;;;;;;;;5139391;27;20407;-75
2022/07/25 11:28:51;;;;;;;1999.90;999.90;;;;;;;;;;5138490;27;20399;-75
2022/07/25 11:31:22;;;;;;;1999.90;999.90;;;;;;;;;;5102018;27;21294;-76
2022/07/25 11:33:50;;;;;;;1999.90;999.90;;;;;;;;;;5137663;27;20396;-74
2022/07/25 11:36:18;;;;;;;1999.90;999.90;;;;;;;;;;5137432;27;21350;-75
2022/07/25 11:38:47;;;;;;;1999.90;999.90;;;;;;;;;;5111582;22;20463;-76
2022/07/25 11:41:27;;;;;;;1999.90;999.90;;;;;;;;;;5087033;27;21000;-76
2022/07/25 11:43:55;;;;;;;1999.90;999.90;;;;;;;;;;5107461;27;20429;-77
2022/07/25 11:46:24;;;;;;;1999.90;999.90;;;;;;;;;;5093801;27;20861;-77
2022/07/25 11:49:03;;;;;;;1999.90;999.90;;;;;;;;;;5087742;28;22320;-78
2022/07/25 11:51:36;;;;;;;1999.90;999.90;;;;;;;;;;5076745;28;20498;-75
2022/07/25 11:54:09;;;;;;;1999.90;999.90;;;;;;;;;;5100745;28;20418;-75
2022/07/25 11:56:40;;;;;;;1999.90;999.90;;;;;;;;;;5059148;28;20408;-76
2022/07/25 11:59:12;;;;;;;1999.90;999.90;;;;;;;;;;5076116;28;20968;-78
2022/07/25 12:01:44;;;;;;;1999.90;999.90;;;;;;;;;;5060956;28;20400;-77
2022/07/25 12:04:13;;;;;;;1999.90;999.90;;;;;;;;;;5099968;28;20421;-79
2022/07/25 12:06:41;;;;;;;1999.90;999.90;;;;;;;;;;5085435;28;20457;-77
2022/07/25 12:09:13;;;;;;;1999.90;999.90;;;;;;;;;;5073995;28;20399;-77
2022/07/25 12:11:48;;;;;;;1999.90;999.90;;;;;;;;;;5059747;28;20383;-76
2022/07/25 12:14:15;;;;;;;1999.90;999.90;;;;;;;;;;5080154;27;20451;-76
2022/07/25 12:16:43;;;;;;;1999.90;999.90;;;;;;;;;;5080762;27;20931;-77
2022/07/25 12:19:18;;;;;;;1999.90;999.90;;;;;;;;;;5088430;27;20398;-76
2022/07/25 12:21:46;;;;;;;1999.90;999.90;;;;;;;;;;5060366;28;20892;-77
2022/07/25 12:24:14;;;;;;;1999.90;999.90;;;;;;;;;;5085683;28;20441;-76
2022/07/25 12:26:42;;;;;;;1999.90;999.90;;;;;;;;;;5077402;28;20529;-76
2022/07/25 12:29:14;;;;;;;1999.90;999.90;;;;;;;;;;5094531;28;20395;-77
2022/07/25 12:31:48;;;;;;;1999.90;999.90;;;;;;;;;;5078272;28;20405;-76
2022/07/25 12:34:22;;;;;;;1999.90;999.90;;;;;;;;;;5078965;28;20411;-77
2022/07/25 12:36:51;;;;;;;1999.90;999.90;;;;;;;;;;5091206;28;20891;-77
2022/07/25 12:39:19;;;;;;;1999.90;999.90;;;;;;;;;;5071013;28;20825;-77
2022/07/25 12:41:47;;;;;;;1999.90;999.90;;;;;;;;;;5098416;27;20495;-78
2022/07/25 12:44:16;;;;;;;1999.90;999.90;;;;;;;;;;5089264;27;22044;-76
2022/07/25 12:46:44;;;;;;;1999.90;999.90;;;;;;;;;;5087164;28;20387;-78
2022/07/25 12:49:16;;;;;;;1999.90;999.90;;;;;;;;;;5075250;28;20422;-79
2022/07/25 12:51:47;;;;;;;1999.90;999.90;;;;;;;;;;5084641;27;20732;-78
2022/07/25 12:54:16;;;;;;;1999.90;999.90;;;;;;;;;;5050214;28;20469;-78
2022/07/25 12:56:48;;;;;;;1999.90;999.90;;;;;;;;;;5067566;28;20915;-77
2022/07/25 12:59:18;;;;;;;1999.90;999.90;;;;;;;;;;5085864;27;20431;-78
2022/07/25 13:01:46;;;;;;;1999.90;999.90;;;;;;;;;;5082907;27;20442;-78
2022/07/25 13:04:13;;;;;;;1999.90;999.90;;;;;;;;;;5081861;27;20520;-78
2022/07/25 13:06:41;;;;;;;1999.90;999.90;;;;;;;;;;5054401;28;20902;-78
2022/07/25 13:09:09;;;;;;;1999.90;999.90;;;;;;;;;;5073261;28;20402;-77
2022/07/25 13:11:37;;;;;;;1999.90;999.90;;;;;;;;;;5062840;27;20401;-78
2022/07/25 13:14:06;;;;;;;1999.90;999.90;;;;;;;;;;5073542;28;20424;-77
2022/07/25 13:16:36;;;;;;;1999.90;999.90;;;;;;;;;;5081190;27;20417;-77
2022/07/25 13:19:04;;;;;;;1999.90;999.90;;;;;;;;;;5075582;27;20401;-78
2022/07/25 13:21:33;;;;;;;1999.90;999.90;;;;;;;;;;5055128;27;20419;-76
2022/07/25 13:24:00;;;;;;;1999.90;999.90;;;;;;;;;;5083551;27;20605;-78
2022/07/25 13:26:28;;;;;;;1999.90;999.90;;;;;;;;;;5066973;27;20408;-77
2022/07/25 13:28:56;;;;;;;1999.90;999.90;;;;;;;;;;5062524;27;20941;-78
2022/07/25 13:31:32;;;;;;;1999.90;999.90;;;;;;;;;;5075266;28;20715;-78
2022/07/25 13:34:02;;;;;;;1999.90;999.90;;;;;;;;;;5081603;27;20410;-78
2022/07/25 13:36:31;;;;;;;1999.90;999.90;;;;;;;;;;5081780;27;20474;-79
2022/07/25 13:38:59;;;;;;;1999.90;999.90;;;;;;;;;;5068513;28;20902;-76
2022/07/25 13:41:27;;;;;;;1999.90;999.90;;;;;;;;;;5087063;28;20397;-77
2022/07/25 13:43:54;;;;;;;1999.90;999.90;;;;;;;;;;5082709;28;20405;-78
2022/07/25 13:46:22;;;;;;;1999.90;999.90;;;;;;;;;;5079874;27;20514;-78
2022/07/25 13:48:50;;;;;;;1999.90;999.90;;;;;;;;;;5078832;28;21180;-77
2022/07/25 13:51:19;;;;;;;1999.90;999.90;;;;;;;;;;5081362;27;20469;-78
2022/07/25 13:53:47;;;;;;;1999.90;999.90;;;;;;;;;;5063156;28;21172;-78
2022/07/25 13:56:15;;;;;;;1999.90;999.90;;;;;;;;;;5072373;27;20409;-78
2022/07/25 13:58:43;;;;;;;1999.90;999.90;;;;;;;;;;5061108;28;20408;-77